ADDS METAR Data INFO
IDs: Format: Raw Decoded Include TAF

Data at: 1337 UTC 19 Jul 2018

KMEZ 191315Z AUTO 00000KT 1/2SM OVC001 25/24 A2996 RMK AO2
KMEZ 191255Z AUTO 00000KT 1/4SM OVC001 25/24 A2996 RMK AO2
KMEZ 191235Z AUTO 00000KT M1/4SM OVC001 25/24 A2996 RMK AO2
KMEZ 191215Z AUTO 00000KT M1/4SM OVC001 25/24 A2996 RMK AO2 TSNO
KMEZ 191155Z AUTO 00000KT M1/4SM OVC001 24/23 A2995 RMK AO2
KMEZ 191135Z AUTO 00000KT 1/4SM OVC001 24/23 A2995 RMK AO2
KMEZ 191115Z AUTO 00000KT 1/4SM OVC001 24/23 A2995 RMK AO2
KMEZ 191055Z AUTO 00000KT 1/2SM OVC001 24/23 A2995 RMK AO2
KMEZ 191035Z AUTO 00000KT 1SM OVC001 24/23 A2994 RMK AO2
KMEZ 191015Z AUTO 00000KT 1/2SM OVC001 23/23 A2993 RMK AO2
KMEZ 190955Z AUTO 00000KT 1/4SM OVC001 24/23 A2993 RMK AO2 TSNO
KMEZ 190935Z AUTO 00000KT 1/4SM OVC001 24/23 A2993 RMK AO2
KMEZ 190915Z AUTO 00000KT M1/4SM OVC001 A2993 RMK AO2
KMEZ 190855Z AUTO 00000KT 1/4SM OVC001 A2993 RMK AO2
KMEZ 190835Z AUTO 00000KT 2SM OVC001 A2993 RMK AO2
KMEZ 190815Z AUTO 00000KT 7SM BKN001 OVC008 A2993 RMK AO2
KMEZ 190735Z AUTO 00000KT 5SM SCT005 A2993 RMK AO2
KMEZ 190715Z AUTO 00000KT 5SM BKN005 A2994 RMK AO2
KMEZ 190655Z AUTO 00000KT 7SM CLR A2994 RMK AO2
KMEZ 190635Z AUTO 00000KT 7SM CLR A2994 RMK AO2
KMEZ 190615Z AUTO 00000KT 7SM CLR A2994 RMK AO2
KMEZ 190555Z AUTO 00000KT 5SM CLR A2995 RMK AO2
KMEZ 190535Z AUTO 00000KT 7SM CLR A2995 RMK AO2
KMEZ 190515Z AUTO 00000KT 7SM CLR A2996 RMK AO2
KMEZ 190455Z AUTO 00000KT 7SM CLR 24/23 A2996 RMK AO2
KMEZ 190435Z AUTO 00000KT 7SM CLR A2996 RMK AO2
KMEZ 190415Z AUTO 00000KT 7SM CLR A2996 RMK AO2
KMEZ 190355Z AUTO 00000KT 7SM CLR A2995 RMK AO2 TSNO
KMEZ 190315Z AUTO 00000KT 7SM CLR A2994 RMK AO2
KMEZ 190255Z AUTO 00000KT 7SM CLR 22/ A2995 RMK AO2
KMEZ 190235Z AUTO 00000KT 10SM SCT120 26/26 A2994 RMK AO2
KMEZ 190215Z AUTO 00000KT 10SM BKN120 26/26 A2994 RMK AO2
KMEZ 190155Z AUTO 00000KT 10SM CLR 27/26 A2993 RMK AO2
KMEZ 190135Z AUTO 00000KT 10SM SCT120 27/27 A2993 RMK AO2
KMEZ 190115Z AUTO 00000KT 10SM BKN120 28/28 A2993 RMK AO2
KMEZ 190055Z AUTO 00000KT 10SM SCT120 28/28 A2993 RMK AO2
KMEZ 190035Z AUTO 00000KT 10SM CLR 28/28 A2993 RMK AO2
KMEZ 190015Z AUTO 00000KT 10SM CLR 28/26 A2993 RMK AO2
KMEZ 182355Z AUTO 00000KT 10SM CLR 29/27 A2993 RMK AO2
KMEZ 182335Z AUTO 00000KT 10SM CLR 29/27 A2994 RMK AO2
KMEZ 182315Z AUTO 00000KT 10SM SCT120 30/27 A2994 RMK AO2
KMEZ 182255Z AUTO 00000KT 10SM CLR 30/27 A2994 RMK AO2
KMEZ 182235Z AUTO 00000KT 10SM CLR 31/26 A2994 RMK AO2
KMEZ 182215Z AUTO 00000KT 10SM CLR 31/26 A2994 RMK AO2
KMEZ 182155Z AUTO 00000KT 10SM CLR 31/26 A2994 RMK AO2
KMEZ 182135Z AUTO 00000KT 10SM CLR 31/25 A2995 RMK AO2
KMEZ 182115Z AUTO 10004KT 10SM CLR 31/25 A2995 RMK AO2
KMEZ 182055Z AUTO 00000KT 10SM CLR 31/24 A2996 RMK AO2 LTG DSNT NE
KMEZ 182035Z AUTO 00000KT 10SM SCT120 31/23 A2998 RMK AO2
KMEZ 182015Z AUTO 00000KT 10SM OVC120 31/23 A2998 RMK AO2
KMEZ 181955Z AUTO 00000KT 10SM BKN120 31/24 A2999 RMK AO2
KMEZ 181935Z AUTO 00000KT 10SM CLR 31/23 A2999 RMK AO2
KMEZ 181915Z AUTO 00000KT 10SM SCT120 31/23 A2999 RMK AO2
KMEZ 181855Z AUTO 00000KT 10SM SCT120 31/24 A3000 RMK AO2
KMEZ 181835Z AUTO 00000KT 10SM SCT120 30/26 A3000 RMK AO2
KMEZ 181815Z AUTO 00000KT 10SM CLR 30/27 A3000 RMK AO2
KMEZ 181755Z AUTO 00000KT 10SM SCT120 29/28 A3001 RMK AO2
KMEZ 181735Z AUTO 00000KT 10SM SCT120 28/28 A3001 RMK AO2
KMEZ 181715Z AUTO 00000KT 10SM CLR 28/28 A3001 RMK AO2
KMEZ 181655Z AUTO 00000KT 10SM CLR 28/27 A3001 RMK AO2
KMEZ 181635Z AUTO 00000KT 10SM SCT110 28/27 A3001 RMK AO2
KMEZ 181615Z AUTO 00000KT 10SM CLR 28/27 A3001 RMK AO2
KMEZ 181555Z AUTO 00000KT 10SM SCT120 27/27 A3001 RMK AO2
KMEZ 181535Z AUTO 00000KT 10SM BKN120 27/27 A3001 RMK AO2
KMEZ 181515Z AUTO 00000KT 10SM BKN120 27/27 A3001 RMK AO2
KMEZ 181455Z AUTO 00000KT 10SM BKN120 27/26 A3002 RMK AO2 P0001
KMEZ 181435Z AUTO 00000KT 10SM SCT005 SCT120 27/27 A3002 RMK AO2 P0001
KMEZ 181415Z AUTO 08003KT 10SM BKN003 BKN110 26/26 A3002 RMK AO2 P0001 LTG DSNT NE
KMEZ 181355Z AUTO 06003KT 7SM SCT003 SCT110 26/25 A3003 RMK AO2 LTG DSNT NE
KMEZ 181335Z AUTO 00000KT 10SM VCTS SCT110 25/25 A3003 RMK AO2 LTG DSNT NE
KMEZ 181315Z AUTO 00000KT 10SM OVC100 25/25 A3003 RMK AO2 LTG DSNT NE
KMEZ 181255Z AUTO 00000KT 10SM OVC100 22/ A3003 RMK AO2
KMEZ 181235Z AUTO 00000KT 10SM BKN110 A3002 RMK AO2 LTG DSNT NE
KMEZ 181215Z AUTO 00000KT 7SM SCT110 A3001 RMK AO2 LTG DSNT N
KMEZ 181155Z AUTO 00000KT 7SM BKN110 A3002 RMK AO2 LTG DSNT N
KMEZ 181135Z AUTO 00000KT 7SM SCT110 A3001 RMK AO2
KMEZ 181115Z AUTO 00000KT 7SM SCT110 A3001 RMK AO2
KMEZ 181055Z AUTO 00000KT 7SM CLR A3001 RMK AO2
KMEZ 181035Z AUTO 00000KT 7SM CLR A3001 RMK AO2
KMEZ 181015Z AUTO 00000KT 7SM SCT100 A3000 RMK AO2
KMEZ 180955Z AUTO 00000KT 10SM BKN100 A3000 RMK AO2
KMEZ 180935Z AUTO 00000KT 10SM SCT110 A3001 RMK AO2
KMEZ 180915Z AUTO 00000KT 10SM CLR 21/ A3001 RMK AO2
KMEZ 180855Z AUTO 00000KT 10SM CLR 25/25 A3001 RMK AO2 TSNO
KMEZ 180835Z AUTO 27003KT 10SM CLR 25/25 A3001 RMK AO2
KMEZ 180815Z AUTO 00000KT 10SM CLR 25/25 A3001 RMK AO2
KMEZ 180755Z AUTO 00000KT 10SM SCT110 A3001 RMK AO2
KMEZ 180735Z AUTO 00000KT 10SM SCT095 SCT110 20/ A3002 RMK AO2 LTG DSNT SW
KMEZ 180715Z AUTO 00000KT 10SM VCTS SCT095 A3003 RMK AO2 LTG DSNT SW AND W
KMEZ 180655Z AUTO 00000KT 10SM TS CLR A3002 RMK AO2 LTG DSNT W
KMEZ 180635Z AUTO 00000KT 10SM VCTS SCT100 A3001 RMK AO2 LTG DSNT W
KMEZ 180615Z AUTO 00000KT 10SM OVC100 A3003 RMK AO2 LTG DSNT W
KMEZ 180555Z AUTO 00000KT 7SM OVC100 21/ A3003 RMK AO2
KMEZ 180535Z AUTO 00000KT 10SM OVC100 25/25 A3003 RMK AO2
KMEZ 180435Z AUTO 00000KT 10SM OVC110 25/25 A3003 RMK AO2
KMEZ 180415Z AUTO 05003KT 10SM BKN110 25/25 A3003 RMK AO2
KMEZ 180355Z AUTO 00000KT 10SM CLR 25/25 A3003 RMK AO2
KMEZ 180335Z AUTO 07004KT 10SM CLR 26/25 A3003 RMK AO2
KMEZ 180315Z AUTO 07003KT 10SM CLR 26/25 A3003 RMK AO2
KMEZ 180255Z AUTO 08003KT 10SM CLR 26/25 A3003 RMK AO2
KMEZ 180235Z AUTO 07006KT 5SM CLR 26/26 A3003 RMK AO2
KMEZ 180215Z AUTO 09006KT 10SM CLR 27/26 A3003 RMK AO2
KMEZ 180155Z AUTO 07005KT 10SM SCT120 27/25 A3003 RMK AO2